Time;durP1;ratioP1;P1;durP2;ratioP2;P2;SDS_P1;SDS_P2;PMS_P1;PMS_P2;Temp;Humidity;BMP_temperature;BMP_pressure;BME280_temperature;BME280_humidity;BME280_pressure;Samples;Min_cycle;Max_cycle;Signal;HPM_P1;HPM_P2
2023/02/10 00:01:05;;;;;;;41.72;15.32;;;;;;;;;;4972685;28;20031;-61
2023/02/10 00:03:31;;;;;;;35.78;14.50;;;;;;;;;;4971491;28;20038;-63
2023/02/10 00:05:57;;;;;;;36.40;14.77;;;;;;;;;;4972684;28;20027;-63
2023/02/10 00:08:22;;;;;;;42.63;15.02;;;;;;;;;;4974607;28;20110;-62
2023/02/10 00:10:48;;;;;;;37.08;15.50;;;;;;;;;;4973084;28;20604;-61
2023/02/10 00:13:13;;;;;;;38.53;15.23;;;;;;;;;;4972495;28;20026;-62
2023/02/10 00:15:38;;;;;;;46.50;16.33;;;;;;;;;;4973888;28;20076;-62
2023/02/10 00:18:04;;;;;;;36.80;14.88;;;;;;;;;;4971470;28;20027;-62
2023/02/10 00:20:29;;;;;;;39.10;14.20;;;;;;;;;;4972654;28;20062;-62
2023/02/10 00:22:55;;;;;;;41.13;15.60;;;;;;;;;;4972436;28;20034;-61
2023/02/10 00:25:20;;;;;;;49.30;15.98;;;;;;;;;;4971679;28;20046;-61
2023/02/10 00:27:46;;;;;;;41.45;16.55;;;;;;;;;;4972015;28;20046;-62
2023/02/10 00:30:11;;;;;;;48.28;17.70;;;;;;;;;;4972681;28;20035;-62
2023/02/10 00:32:40;;;;;;;39.30;16.55;;;;;;;;;;4972219;28;20038;-62
2023/02/10 00:35:06;;;;;;;44.90;16.45;;;;;;;;;;4971646;28;20481;-62
2023/02/10 00:37:32;;;;;;;44.17;15.88;;;;;;;;;;4971927;28;20444;-61
2023/02/10 00:39:57;;;;;;;49.58;17.85;;;;;;;;;;4971697;28;20083;-61
2023/02/10 00:42:22;;;;;;;45.28;16.77;;;;;;;;;;4976812;28;20528;-63
2023/02/10 00:44:48;;;;;;;49.10;18.27;;;;;;;;;;4971774;28;20117;-61
2023/02/10 00:47:13;;;;;;;51.53;18.95;;;;;;;;;;4971820;28;20409;-62
2023/02/10 00:49:39;;;;;;;42.28;17.02;;;;;;;;;;4972093;28;20037;-62
2023/02/10 00:52:04;;;;;;;45.22;17.40;;;;;;;;;;4972437;28;20040;-62
2023/02/10 00:54:29;;;;;;;44.65;17.20;;;;;;;;;;4971010;28;20061;-62
2023/02/10 00:56:55;;;;;;;43.72;17.20;;;;;;;;;;4971142;28;20049;-62
2023/02/10 00:59:20;;;;;;;41.63;16.45;;;;;;;;;;4971537;28;20073;-63
2023/02/10 01:01:46;;;;;;;47.85;16.85;;;;;;;;;;4970654;28;20042;-62
2023/02/10 01:04:11;;;;;;;48.40;17.38;;;;;;;;;;4968286;28;20023;-60
2023/02/10 01:06:38;;;;;;;42.92;17.75;;;;;;;;;;4970980;28;20070;-63
2023/02/10 01:09:03;;;;;;;50.55;19.45;;;;;;;;;;4971579;28;20031;-61
2023/02/10 01:11:29;;;;;;;42.35;17.70;;;;;;;;;;4971077;28;20101;-61
2023/02/10 01:13:54;;;;;;;48.33;18.23;;;;;;;;;;4970602;28;20061;-61
2023/02/10 01:16:20;;;;;;;48.42;18.30;;;;;;;;;;4969465;28;20401;-61
2023/02/10 01:18:46;;;;;;;44.55;17.60;;;;;;;;;;4971742;28;20030;-62
2023/02/10 01:21:17;;;;;;;46.83;18.58;;;;;;;;;;4971045;28;20022;-61
2023/02/10 01:23:43;;;;;;;45.25;17.25;;;;;;;;;;4969909;28;20126;-61
2023/02/10 01:26:09;;;;;;;44.03;17.40;;;;;;;;;;4970745;28;20031;-62
2023/02/10 01:28:36;;;;;;;47.65;17.73;;;;;;;;;;4963680;28;20022;-61
2023/02/10 01:31:06;;;;;;;47.17;17.67;;;;;;;;;;4970906;28;20485;-62
2023/02/10 01:33:32;;;;;;;44.67;17.70;;;;;;;;;;4967652;28;20035;-61
2023/02/10 01:35:57;;;;;;;55.88;18.80;;;;;;;;;;4970390;28;20038;-62
2023/02/10 01:38:23;;;;;;;47.13;18.13;;;;;;;;;;4970514;28;20388;-61
2023/02/10 01:40:49;;;;;;;46.05;17.60;;;;;;;;;;4965639;28;20027;-63
2023/02/10 01:43:16;;;;;;;45.50;18.80;;;;;;;;;;4969993;28;20031;-61
2023/02/10 01:45:42;;;;;;;47.25;17.90;;;;;;;;;;4968553;28;20033;-62
2023/02/10 01:48:08;;;;;;;43.65;17.58;;;;;;;;;;4967211;28;20027;-62
2023/02/10 01:50:47;;;;;;;48.95;19.60;;;;;;;;;;4970470;28;20026;-61
2023/02/10 01:53:14;;;;;;;54.53;19.88;;;;;;;;;;4968522;28;20523;-62
2023/02/10 01:55:42;;;;;;;48.63;17.52;;;;;;;;;;4969682;28;20106;-62
2023/02/10 01:58:12;;;;;;;44.42;18.58;;;;;;;;;;4970498;28;20023;-61
2023/02/10 02:00:38;;;;;;;44.17;17.90;;;;;;;;;;4969930;28;20023;-61
2023/02/10 02:03:05;;;;;;;42.78;17.55;;;;;;;;;;4969632;28;20039;-61
2023/02/10 02:05:39;;;;;;;50.38;18.55;;;;;;;;;;4969619;28;20058;-63
2023/02/10 02:08:09;;;;;;;45.35;18.23;;;;;;;;;;4970606;28;20468;-63
2023/02/10 02:10:58;;;;;;;48.33;18.30;;;;;;;;;;4970017;28;20041;-63
2023/02/10 02:13:47;;;;;;;48.60;19.83;;;;;;;;;;4953211;28;20118;-62
2023/02/10 02:16:42;;;;;;;45.47;18.38;;;;;;;;;;4965225;28;20126;-62
2023/02/10 02:19:22;;;;;;;44.83;17.70;;;;;;;;;;4972762;28;20030;-63
2023/02/10 02:22:09;;;;;;;44.05;17.30;;;;;;;;;;4969711;28;20149;-62
2023/02/10 02:25:11;;;;;;;46.03;17.95;;;;;;;;;;4969460;28;20551;-62
2023/02/10 02:27:55;;;;;;;47.85;18.08;;;;;;;;;;4969431;28;20492;-62
2023/02/10 02:30:49;;;;;;;47.17;17.90;;;;;;;;;;4969842;28;20037;-61
2023/02/10 02:33:21;;;;;;;48.08;18.27;;;;;;;;;;4880404;28;20431;-62
2023/02/10 02:35:57;;;;;;;50.28;17.35;;;;;;;;;;4970868;28;20034;-62
2023/02/10 02:38:39;;;;;;;51.33;17.70;;;;;;;;;;4969578;28;20061;-62
2023/02/10 02:41:04;;;;;;;52.22;19.45;;;;;;;;;;4968451;28;20066;-61
2023/02/10 02:43:29;;;;;;;52.28;19.05;;;;;;;;;;4969683;28;20073;-62
2023/02/10 02:45:58;;;;;;;42.60;17.75;;;;;;;;;;4969796;28;20031;-62
2023/02/10 02:48:31;;;;;;;50.17;17.77;;;;;;;;;;4974125;28;20089;-61
2023/02/10 02:51:13;;;;;;;45.33;17.75;;;;;;;;;;4973294;28;20401;-62
2023/02/10 02:54:20;;;;;;;46.13;17.08;;;;;;;;;;4972624;28;20026;-61
2023/02/10 02:56:52;;;;;;;43.78;17.70;;;;;;;;;;4972764;28;20038;-61
2023/02/10 02:59:40;;;;;;;44.22;18.02;;;;;;;;;;4973067;28;20027;-61
2023/02/10 03:02:12;;;;;;;49.83;17.45;;;;;;;;;;4973299;28;20046;-61
2023/02/10 03:04:38;;;;;;;47.92;17.60;;;;;;;;;;4973057;28;20033;-62
2023/02/10 03:07:04;;;;;;;50.03;18.73;;;;;;;;;;4974076;28;20117;-61
2023/02/10 03:09:30;;;;;;;43.20;16.70;;;;;;;;;;4973197;28;20027;-62
2023/02/10 03:11:56;;;;;;;44.05;17.50;;;;;;;;;;4973856;28;20596;-62
2023/02/10 03:14:22;;;;;;;44.00;16.50;;;;;;;;;;4972450;28;20113;-61
2023/02/10 03:16:47;;;;;;;43.40;18.02;;;;;;;;;;4973631;28;20027;-61
2023/02/10 03:19:13;;;;;;;46.72;18.83;;;;;;;;;;4972737;28;20501;-61
2023/02/10 03:21:38;;;;;;;43.00;18.02;;;;;;;;;;4973810;28;20477;-61
2023/02/10 03:24:04;;;;;;;46.80;18.15;;;;;;;;;;4970230;28;20026;-61
2023/02/10 03:26:30;;;;;;;44.72;17.15;;;;;;;;;;4972810;28;20035;-62
2023/02/10 03:28:56;;;;;;;51.25;19.73;;;;;;;;;;4973734;28;20030;-62
2023/02/10 03:31:22;;;;;;;48.47;18.25;;;;;;;;;;4973013;28;20026;-62
2023/02/10 03:33:47;;;;;;;45.88;17.42;;;;;;;;;;4972170;28;20150;-62
2023/02/10 03:36:13;;;;;;;41.97;16.45;;;;;;;;;;4976286;28;20599;-62
2023/02/10 03:38:38;;;;;;;48.33;18.70;;;;;;;;;;4972991;28;20578;-62
2023/02/10 03:41:11;;;;;;;44.63;17.58;;;;;;;;;;4972928;28;20161;-62
2023/02/10 03:43:37;;;;;;;39.90;16.30;;;;;;;;;;4971812;28;20039;-61
2023/02/10 03:46:03;;;;;;;47.80;18.17;;;;;;;;;;4973359;28;20054;-62
2023/02/10 03:48:32;;;;;;;47.70;17.60;;;;;;;;;;4973606;28;20165;-61
2023/02/10 03:51:03;;;;;;;46.20;17.58;;;;;;;;;;4971520;28;20030;-62
2023/02/10 03:53:30;;;;;;;45.90;17.08;;;;;;;;;;4972018;28;20045;-62
2023/02/10 03:55:55;;;;;;;46.58;16.33;;;;;;;;;;4968761;28;20547;-61
2023/02/10 03:58:21;;;;;;;44.70;17.08;;;;;;;;;;4975734;28;20067;-62
2023/02/10 04:00:46;;;;;;;44.60;18.92;;;;;;;;;;4973787;28;20030;-61
2023/02/10 04:03:12;;;;;;;44.03;16.60;;;;;;;;;;4971895;28;20030;-61
2023/02/10 04:05:37;;;;;;;45.83;16.88;;;;;;;;;;4974693;28;20030;-62
2023/02/10 04:08:04;;;;;;;47.35;18.80;;;;;;;;;;4980053;28;20511;-62
2023/02/10 04:10:29;;;;;;;53.08;18.17;;;;;;;;;;4972243;28;20037;-61
2023/02/10 04:12:55;;;;;;;48.92;18.20;;;;;;;;;;4972574;28;20026;-62
2023/02/10 04:15:20;;;;;;;49.00;18.25;;;;;;;;;;4970117;28;20664;-61
2023/02/10 04:17:45;;;;;;;48.75;17.20;;;;;;;;;;4972668;28;20023;-63
2023/02/10 04:20:11;;;;;;;47.55;17.67;;;;;;;;;;4972695;28;20033;-62
2023/02/10 04:22:37;;;;;;;45.65;17.50;;;;;;;;;;4972108;28;20097;-61
2023/02/10 04:25:03;;;;;;;46.03;18.50;;;;;;;;;;4971970;28;20180;-61
2023/02/10 04:27:29;;;;;;;48.47;18.00;;;;;;;;;;4972786;28;20109;-61
2023/02/10 04:29:55;;;;;;;57.40;18.30;;;;;;;;;;4974179;28;20183;-63
2023/02/10 04:32:20;;;;;;;48.15;17.98;;;;;;;;;;4972194;28;20038;-61
2023/02/10 04:34:46;;;;;;;54.90;19.08;;;;;;;;;;4970873;28;20026;-62
2023/02/10 04:37:11;;;;;;;45.42;17.90;;;;;;;;;;4972151;28;20115;-61
2023/02/10 04:39:36;;;;;;;46.60;18.20;;;;;;;;;;4975185;28;20038;-61
2023/02/10 04:42:02;;;;;;;47.22;18.17;;;;;;;;;;4971873;28;20026;-61
2023/02/10 04:44:27;;;;;;;49.45;18.48;;;;;;;;;;4971297;28;20030;-63
2023/02/10 04:46:53;;;;;;;51.42;21.45;;;;;;;;;;4972030;28;20027;-62
2023/02/10 04:49:18;;;;;;;49.25;17.85;;;;;;;;;;4971657;28;20022;-62
2023/02/10 04:51:43;;;;;;;49.08;19.25;;;;;;;;;;4971656;28;20502;-62
2023/02/10 04:54:09;;;;;;;51.10;21.27;;;;;;;;;;4970708;28;20046;-62
2023/02/10 04:56:34;;;;;;;63.85;23.63;;;;;;;;;;4977853;28;20428;-62
2023/02/10 04:59:00;;;;;;;64.07;22.35;;;;;;;;;;4971327;28;20034;-62
2023/02/10 05:01:25;;;;;;;64.85;22.17;;;;;;;;;;4971334;28;20034;-62
2023/02/10 05:03:51;;;;;;;53.45;19.92;;;;;;;;;;4971302;28;20034;-62
2023/02/10 05:06:16;;;;;;;44.35;18.30;;;;;;;;;;4969988;28;20488;-62
2023/02/10 05:08:43;;;;;;;48.65;18.77;;;;;;;;;;4971123;28;20031;-62
2023/02/10 05:11:13;;;;;;;54.22;19.98;;;;;;;;;;4971678;28;20097;-63
2023/02/10 05:13:40;;;;;;;48.63;18.83;;;;;;;;;;4971233;28;20584;-62
2023/02/10 05:16:06;;;;;;;44.90;18.25;;;;;;;;;;4971299;28;20081;-62
2023/02/10 05:18:33;;;;;;;54.05;19.58;;;;;;;;;;4971760;28;20033;-62
2023/02/10 05:21:00;;;;;;;51.30;21.73;;;;;;;;;;4970404;28;20030;-62
2023/02/10 05:23:26;;;;;;;58.60;21.88;;;;;;;;;;4970562;28;20030;-62
2023/02/10 05:25:52;;;;;;;50.95;20.10;;;;;;;;;;4971125;28;20488;-62
2023/02/10 05:28:17;;;;;;;55.50;22.15;;;;;;;;;;4971524;28;20085;-62
2023/02/10 05:30:43;;;;;;;59.50;22.98;;;;;;;;;;4976708;28;20022;-62
2023/02/10 05:33:08;;;;;;;56.78;21.00;;;;;;;;;;4971183;28;20563;-63
2023/02/10 05:35:34;;;;;;;59.05;20.58;;;;;;;;;;4970230;28;20056;-62
2023/02/10 05:38:01;;;;;;;67.78;24.75;;;;;;;;;;4973998;28;20654;-62
2023/02/10 05:40:27;;;;;;;60.33;24.52;;;;;;;;;;4971053;28;20037;-61
2023/02/10 05:42:53;;;;;;;78.65;26.58;;;;;;;;;;4970756;28;20065;-61
2023/02/10 05:45:18;;;;;;;72.10;28.00;;;;;;;;;;4970308;28;20035;-61
2023/02/10 05:47:43;;;;;;;74.15;24.95;;;;;;;;;;4963854;28;20488;-67
2023/02/10 05:50:09;;;;;;;67.07;25.52;;;;;;;;;;4971185;28;20019;-68
2023/02/10 05:52:34;;;;;;;63.08;25.60;;;;;;;;;;4968266;28;20370;-69
2023/02/10 05:55:00;;;;;;;65.15;25.52;;;;;;;;;;4967629;28;20217;-68
2023/02/10 05:57:25;;;;;;;60.92;23.20;;;;;;;;;;4970792;28;20033;-68
2023/02/10 05:59:50;;;;;;;54.13;22.17;;;;;;;;;;4970106;28;20041;-69
2023/02/10 06:02:16;;;;;;;62.42;23.75;;;;;;;;;;4953589;28;20035;-68
2023/02/10 06:04:41;;;;;;;55.90;22.40;;;;;;;;;;4966411;28;20033;-68
2023/02/10 06:07:06;;;;;;;60.25;22.20;;;;;;;;;;4969951;28;20121;-68
2023/02/10 06:09:32;;;;;;;54.15;21.75;;;;;;;;;;4969055;28;20090;-69
2023/02/10 06:11:57;;;;;;;67.53;25.30;;;;;;;;;;4970591;28;20066;-68
2023/02/10 06:14:22;;;;;;;65.72;23.13;;;;;;;;;;4969233;28;20069;-64
2023/02/10 06:16:48;;;;;;;62.80;23.73;;;;;;;;;;4967422;28;20613;-67
2023/02/10 06:19:13;;;;;;;59.00;21.38;;;;;;;;;;4967019;28;20043;-67
2023/02/10 06:21:39;;;;;;;56.95;22.67;;;;;;;;;;4968646;28;20034;-66
2023/02/10 06:24:04;;;;;;;51.00;21.70;;;;;;;;;;4967882;28;20026;-67
2023/02/10 06:26:30;;;;;;;46.42;20.25;;;;;;;;;;4967866;28;20531;-68
2023/02/10 06:28:56;;;;;;;45.33;19.70;;;;;;;;;;4964957;28;20026;-67
2023/02/10 06:31:22;;;;;;;57.75;21.30;;;;;;;;;;4972382;28;20053;-68
2023/02/10 06:33:48;;;;;;;52.28;20.27;;;;;;;;;;4972529;28;20029;-67
2023/02/10 06:36:13;;;;;;;58.20;21.42;;;;;;;;;;4967787;28;20411;-67
2023/02/10 06:38:39;;;;;;;54.97;19.23;;;;;;;;;;4971944;28;20031;-67
2023/02/10 06:41:06;;;;;;;51.10;18.55;;;;;;;;;;4970247;28;20440;-67
2023/02/10 06:43:31;;;;;;;50.38;20.55;;;;;;;;;;4968458;28;20035;-67
2023/02/10 06:45:56;;;;;;;64.43;22.10;;;;;;;;;;4964698;28;20030;-67
2023/02/10 06:48:22;;;;;;;65.38;23.08;;;;;;;;;;4973570;28;20038;-66
2023/02/10 06:50:47;;;;;;;63.38;24.95;;;;;;;;;;4971500;28;20034;-66
2023/02/10 06:53:13;;;;;;;73.10;27.60;;;;;;;;;;4969519;28;20082;-67
2023/02/10 06:55:38;;;;;;;65.32;25.75;;;;;;;;;;4968924;28;20516;-68
2023/02/10 06:58:04;;;;;;;64.03;25.98;;;;;;;;;;4970240;28;20050;-68
2023/02/10 07:00:32;;;;;;;68.03;26.05;;;;;;;;;;4969144;28;20448;-68
2023/02/10 07:02:57;;;;;;;64.68;26.00;;;;;;;;;;4969360;28;20027;-68
2023/02/10 07:05:23;;;;;;;69.35;26.17;;;;;;;;;;4969198;28;20456;-68
2023/02/10 07:07:50;;;;;;;61.85;25.90;;;;;;;;;;4969737;28;20023;-67
2023/02/10 07:10:17;;;;;;;76.70;26.85;;;;;;;;;;4968668;28;20042;-68
2023/02/10 07:12:42;;;;;;;59.60;24.13;;;;;;;;;;4966305;28;20585;-68
2023/02/10 07:15:08;;;;;;;59.25;25.13;;;;;;;;;;4970822;28;20035;-68
2023/02/10 07:17:35;;;;;;;64.93;26.42;;;;;;;;;;4966058;28;20030;-67
2023/02/10 07:20:01;;;;;;;61.95;25.60;;;;;;;;;;4967921;28;20074;-69
2023/02/10 07:22:26;;;;;;;59.47;22.63;;;;;;;;;;4966931;28;20066;-68
2023/02/10 07:24:51;;;;;;;57.40;25.55;;;;;;;;;;4966945;28;20114;-69
2023/02/10 07:27:17;;;;;;;57.63;23.20;;;;;;;;;;4972577;28;20039;-68
2023/02/10 07:29:42;;;;;;;64.53;25.92;;;;;;;;;;4967384;28;20467;-68
2023/02/10 07:32:08;;;;;;;57.25;24.20;;;;;;;;;;4968352;28;20023;-67
2023/02/10 07:34:34;;;;;;;63.90;25.83;;;;;;;;;;4970530;28;20041;-67
2023/02/10 07:36:59;;;;;;;63.45;24.73;;;;;;;;;;4972451;28;20038;-67
2023/02/10 07:39:25;;;;;;;58.10;23.98;;;;;;;;;;4971378;28;20484;-67
2023/02/10 07:41:51;;;;;;;59.85;24.92;;;;;;;;;;4971607;28;20106;-68
2023/02/10 07:44:17;;;;;;;67.60;26.13;;;;;;;;;;4970268;28;20182;-67
2023/02/10 07:46:43;;;;;;;75.43;30.02;;;;;;;;;;4969028;28;20623;-69
2023/02/10 07:49:08;;;;;;;77.35;30.60;;;;;;;;;;4971518;28;20037;-68
2023/02/10 07:51:34;;;;;;;73.22;30.63;;;;;;;;;;4971645;28;20026;-68
2023/02/10 07:53:59;;;;;;;69.80;30.00;;;;;;;;;;4971327;28;20089;-68
2023/02/10 07:56:25;;;;;;;82.35;32.10;;;;;;;;;;4963502;28;20078;-69
2023/02/10 07:58:50;;;;;;;70.43;29.48;;;;;;;;;;4953997;28;20449;-69
2023/02/10 08:01:16;;;;;;;91.28;33.20;;;;;;;;;;4971266;28;20484;-67
2023/02/10 08:03:41;;;;;;;104.65;37.95;;;;;;;;;;4964463;28;20038;-69
2023/02/10 08:06:07;;;;;;;100.68;39.40;;;;;;;;;;4971261;28;20488;-67
2023/02/10 08:08:33;;;;;;;112.63;44.38;;;;;;;;;;4970778;28;20037;-69
2023/02/10 08:10:58;;;;;;;110.18;44.28;;;;;;;;;;4970853;28;20053;-67
2023/02/10 08:13:24;;;;;;;103.10;40.55;;;;;;;;;;4971030;28;20043;-68
2023/02/10 08:15:49;;;;;;;104.15;40.58;;;;;;;;;;4970769;28;20102;-67
2023/02/10 08:18:15;;;;;;;101.63;41.45;;;;;;;;;;4972525;28;20031;-68
2023/02/10 08:20:40;;;;;;;102.55;40.17;;;;;;;;;;4965836;28;20030;-67
2023/02/10 08:23:06;;;;;;;108.40;39.38;;;;;;;;;;4970410;28;20050;-69
2023/02/10 08:25:32;;;;;;;112.43;40.92;;;;;;;;;;4968186;28;20704;-69
2023/02/10 08:27:58;;;;;;;117.60;42.08;;;;;;;;;;4970550;28;20046;-69
2023/02/10 08:30:24;;;;;;;112.68;41.25;;;;;;;;;;4968313;28;20033;-69
2023/02/10 08:32:49;;;;;;;119.72;42.95;;;;;;;;;;4971409;28;20038;-69
2023/02/10 08:35:14;;;;;;;121.88;41.97;;;;;;;;;;4970924;28;20034;-69
2023/02/10 08:37:40;;;;;;;112.90;40.05;;;;;;;;;;4973017;28;20014;-68
2023/02/10 08:40:06;;;;;;;107.13;40.13;;;;;;;;;;4970662;28;20026;-68
2023/02/10 08:42:32;;;;;;;109.88;40.65;;;;;;;;;;4970715;28;20133;-68
2023/02/10 08:44:58;;;;;;;116.35;44.15;;;;;;;;;;4972420;28;20038;-68
2023/02/10 08:47:23;;;;;;;104.65;42.33;;;;;;;;;;4970493;28;20481;-69
2023/02/10 08:49:49;;;;;;;100.38;39.03;;;;;;;;;;4972631;28;20022;-69
2023/02/10 08:52:15;;;;;;;101.60;39.67;;;;;;;;;;4970947;28;20035;-69
2023/02/10 08:54:41;;;;;;;102.88;36.90;;;;;;;;;;4972309;28;20030;-68
2023/02/10 08:57:06;;;;;;;99.72;38.80;;;;;;;;;;4970673;28;20030;-68
2023/02/10 08:59:31;;;;;;;101.85;38.63;;;;;;;;;;4970208;28;20687;-68
2023/02/10 09:01:57;;;;;;;95.20;37.13;;;;;;;;;;4971103;28;20054;-69
2023/02/10 09:04:22;;;;;;;101.80;40.13;;;;;;;;;;4970268;28;20031;-68
2023/02/10 09:06:48;;;;;;;119.85;43.65;;;;;;;;;;4970949;28;20074;-69
2023/02/10 09:09:22;;;;;;;129.30;45.92;;;;;;;;;;4969229;28;20086;-67
2023/02/10 09:11:48;;;;;;;135.50;48.33;;;;;;;;;;4967676;28;20039;-68
2023/02/10 09:14:13;;;;;;;121.82;45.38;;;;;;;;;;4968350;28;20093;-68
2023/02/10 09:16:39;;;;;;;123.32;43.75;;;;;;;;;;4970042;28;20471;-69
2023/02/10 09:19:05;;;;;;;125.03;44.47;;;;;;;;;;4969404;28;20023;-68
2023/02/10 09:21:31;;;;;;;118.72;40.53;;;;;;;;;;4968602;28;20488;-68
2023/02/10 09:23:56;;;;;;;123.53;43.75;;;;;;;;;;4975222;28;20034;-68
2023/02/10 09:26:22;;;;;;;111.55;41.33;;;;;;;;;;4974848;28;20078;-68
2023/02/10 09:28:48;;;;;;;108.82;39.78;;;;;;;;;;4965502;28;20102;-68
2023/02/10 09:31:15;;;;;;;95.15;38.13;;;;;;;;;;4966935;28;20785;-69
2023/02/10 09:33:42;;;;;;;90.90;34.50;;;;;;;;;;4968196;28;20033;-68
2023/02/10 09:36:13;;;;;;;99.93;36.13;;;;;;;;;;4975153;28;20113;-68
2023/02/10 09:38:38;;;;;;;97.50;35.30;;;;;;;;;;4969512;28;20026;-69
2023/02/10 09:41:31;;;;;;;98.25;36.92;;;;;;;;;;4969580;28;20035;-69
2023/02/10 09:44:14;;;;;;;97.85;34.60;;;;;;;;;;4966532;28;20034;-69
2023/02/10 09:47:01;;;;;;;100.90;36.88;;;;;;;;;;4968806;28;20106;-69
2023/02/10 09:49:49;;;;;;;95.60;34.60;;;;;;;;;;4968325;28;20039;-70
2023/02/10 09:52:29;;;;;;;104.13;37.25;;;;;;;;;;4966343;28;20034;-70
2023/02/10 09:54:55;;;;;;;95.00;35.38;;;;;;;;;;4968652;28;20489;-70
2023/02/10 09:57:43;;;;;;;98.70;34.10;;;;;;;;;;4968414;28;20042;-68
2023/02/10 10:00:23;;;;;;;101.35;35.30;;;;;;;;;;4968964;28;20488;-68
2023/02/10 10:02:54;;;;;;;102.68;36.53;;;;;;;;;;4969006;28;20481;-68
2023/02/10 10:05:35;;;;;;;114.93;39.30;;;;;;;;;;4969404;28;20026;-68
2023/02/10 10:08:02;;;;;;;108.55;37.85;;;;;;;;;;4968729;28;20054;-70
2023/02/10 10:10:42;;;;;;;103.45;36.70;;;;;;;;;;4965734;28;20088;-70
2023/02/10 10:13:18;;;;;;;103.53;34.03;;;;;;;;;;4967965;28;20039;-71
2023/02/10 10:16:10;;;;;;;107.03;36.10;;;;;;;;;;4962976;28;20046;-68
2023/02/10 10:18:52;;;;;;;104.75;35.70;;;;;;;;;;4957082;28;20038;-71
2023/02/10 10:21:31;;;;;;;113.95;35.70;;;;;;;;;;4967147;28;20460;-69
2023/02/10 10:24:02;;;;;;;119.40;38.55;;;;;;;;;;4966866;28;20031;-68
2023/02/10 10:26:38;;;;;;;108.95;35.40;;;;;;;;;;4968731;28;20033;-70
2023/02/10 10:29:21;;;;;;;118.38;36.53;;;;;;;;;;4971967;28;20023;-69
2023/02/10 10:31:53;;;;;;;105.25;34.08;;;;;;;;;;4965772;28;20038;-68
2023/02/10 10:34:23;;;;;;;106.35;34.25;;;;;;;;;;4967911;28;20105;-69
2023/02/10 10:36:56;;;;;;;107.63;32.88;;;;;;;;;;4962852;28;20528;-67
2023/02/10 10:39:41;;;;;;;100.50;32.85;;;;;;;;;;4967377;28;20039;-67
2023/02/10 10:42:46;;;;;;;105.75;33.40;;;;;;;;;;4965288;28;20118;-67
2023/02/10 10:45:26;;;;;;;114.57;32.90;;;;;;;;;;4963087;28;20030;-67
2023/02/10 10:48:28;;;;;;;92.47;30.85;;;;;;;;;;4969935;28;20026;-67
2023/02/10 10:51:03;;;;;;;89.15;28.65;;;;;;;;;;4967951;28;20034;-70
2023/02/10 10:53:40;;;;;;;107.68;33.33;;;;;;;;;;4971825;28;20033;-66
2023/02/10 10:56:12;;;;;;;96.28;31.58;;;;;;;;;;4966448;28;20121;-70
2023/02/10 10:58:44;;;;;;;97.20;33.28;;;;;;;;;;4957925;28;20026;-68
2023/02/10 11:01:10;;;;;;;81.40;28.90;;;;;;;;;;4969605;28;20492;-68
2023/02/10 11:03:36;;;;;;;81.43;28.52;;;;;;;;;;4967499;28;20127;-68
2023/02/10 11:06:18;;;;;;;101.45;32.78;;;;;;;;;;4969176;28;20038;-68
2023/02/10 11:08:53;;;;;;;79.28;28.40;;;;;;;;;;4962233;28;20023;-68
2023/02/10 11:11:19;;;;;;;69.22;26.10;;;;;;;;;;4974499;28;20117;-69
2023/02/10 11:13:55;;;;;;;80.68;27.27;;;;;;;;;;4979896;28;20169;-69
2023/02/10 11:16:20;;;;;;;73.78;25.75;;;;;;;;;;4971698;28;20031;-69
2023/02/10 11:18:53;;;;;;;68.90;25.60;;;;;;;;;;4973304;28;20389;-69
2023/02/10 11:21:19;;;;;;;71.28;24.23;;;;;;;;;;4972613;28;20027;-69
2023/02/10 11:23:51;;;;;;;67.35;23.48;;;;;;;;;;4972140;28;20033;-69
2023/02/10 11:26:25;;;;;;;78.32;25.77;;;;;;;;;;4969408;28;20069;-70
2023/02/10 11:28:51;;;;;;;68.97;24.42;;;;;;;;;;4972283;28;20730;-69
2023/02/10 11:31:36;;;;;;;77.10;28.92;;;;;;;;;;4976545;28;20039;-69
2023/02/10 11:34:28;;;;;;;79.50;26.45;;;;;;;;;;4972734;28;20492;-69
2023/02/10 11:36:57;;;;;;;78.78;22.88;;;;;;;;;;4972662;28;20061;-61
2023/02/10 11:39:31;;;;;;;67.20;22.85;;;;;;;;;;4971840;28;20034;-68
2023/02/10 11:41:57;;;;;;;72.20;27.05;;;;;;;;;;4971917;28;20030;-68
2023/02/10 11:44:31;;;;;;;73.82;27.67;;;;;;;;;;4966971;28;20080;-68
2023/02/10 11:47:04;;;;;;;81.07;28.52;;;;;;;;;;4971041;28;20093;-69
2023/02/10 11:49:32;;;;;;;74.20;28.35;;;;;;;;;;4971507;28;20035;-68
2023/02/10 11:51:59;;;;;;;78.07;28.75;;;;;;;;;;4970265;28;20711;-68
2023/02/10 11:54:26;;;;;;;73.53;28.48;;;;;;;;;;4969618;28;20059;-68
2023/02/10 12:00:05;;;;;;;74.70;27.98;;;;;;;;;;4972010;28;20045;-68
2023/02/10 12:02:51;;;;;;;77.82;28.55;;;;;;;;;;4970070;28;20038;-68
2023/02/10 12:05:34;;;;;;;70.63;27.85;;;;;;;;;;4977474;28;20034;-68
2023/02/10 12:08:17;;;;;;;68.00;26.80;;;;;;;;;;4973245;28;20114;-69
2023/02/10 12:10:49;;;;;;;69.82;26.92;;;;;;;;;;4969573;28;20031;-66
2023/02/10 12:13:38;;;;;;;75.63;27.75;;;;;;;;;;4969378;28;20544;-67
2023/02/10 12:16:32;;;;;;;69.28;28.75;;;;;;;;;;4972991;28;20030;-67
2023/02/10 12:18:57;;;;;;;78.30;27.77;;;;;;;;;;4973370;28;20861;-66
2023/02/10 12:21:44;;;;;;;70.25;28.83;;;;;;;;;;4972783;28;20023;-67
2023/02/10 12:24:31;;;;;;;77.13;29.45;;;;;;;;;;4971453;28;20031;-68
2023/02/10 12:27:15;;;;;;;70.93;29.65;;;;;;;;;;4970020;28;20034;-67
2023/02/10 12:30:04;;;;;;;66.72;28.13;;;;;;;;;;4972450;28;20031;-67
2023/02/10 12:33:05;;;;;;;68.38;28.52;;;;;;;;;;4971070;28;20070;-67
2023/02/10 12:35:51;;;;;;;73.28;28.65;;;;;;;;;;4970312;28;20035;-67
2023/02/10 12:38:38;;;;;;;69.70;29.35;;;;;;;;;;4970416;28;20252;-67
2023/02/10 12:41:34;;;;;;;69.43;29.80;;;;;;;;;;4970678;28;20077;-67
2023/02/10 12:44:24;;;;;;;73.03;27.38;;;;;;;;;;4969910;28;20676;-69
2023/02/10 12:47:06;;;;;;;79.45;29.10;;;;;;;;;;4970534;28;20761;-69
2023/02/10 12:49:57;;;;;;;67.63;28.35;;;;;;;;;;4975861;28;20033;-68
2023/02/10 12:52:34;;;;;;;68.07;26.77;;;;;;;;;;4973242;28;20037;-68
2023/02/10 12:55:14;;;;;;;66.47;27.73;;;;;;;;;;4965935;28;20023;-68
2023/02/10 12:57:45;;;;;;;67.55;26.73;;;;;;;;;;4971268;28;20484;-68
2023/02/10 13:00:14;;;;;;;67.28;28.55;;;;;;;;;;4970087;28;20027;-68
2023/02/10 13:02:43;;;;;;;62.40;28.25;;;;;;;;;;4973046;28;20049;-68
2023/02/10 13:05:12;;;;;;;69.97;27.83;;;;;;;;;;4970529;28;20051;-68
2023/02/10 13:07:45;;;;;;;83.00;30.40;;;;;;;;;;4970945;28;20038;-68
2023/02/10 13:10:29;;;;;;;95.88;38.53;;;;;;;;;;4972203;28;20027;-68
2023/02/10 13:13:00;;;;;;;67.63;29.45;;;;;;;;;;4970316;28;20489;-68
2023/02/10 13:15:30;;;;;;;59.97;27.10;;;;;;;;;;4969459;28;20403;-67
2023/02/10 13:17:56;;;;;;;59.13;25.30;;;;;;;;;;4970288;28;20484;-68
2023/02/10 13:20:33;;;;;;;60.83;26.23;;;;;;;;;;4970045;28;20042;-67
2023/02/10 13:23:15;;;;;;;61.05;25.55;;;;;;;;;;4969402;28;20037;-68
2023/02/10 13:25:56;;;;;;;60.25;25.35;;;;;;;;;;4964210;28;20033;-68
2023/02/10 13:31:14;;;;;;;52.10;23.83;;;;;;;;;;4250593;27;20086;-78
2023/02/10 13:34:14;;;;;;;50.90;23.50;;;;;;;;;;4914121;29;20036;-76
2023/02/10 13:36:40;;;;;;;54.95;24.15;;;;;;;;;;4880295;29;20403;-78
2023/02/10 13:39:22;;;;;;;60.03;25.05;;;;;;;;;;4907992;29;20117;-77
2023/02/10 13:42:04;;;;;;;54.03;23.95;;;;;;;;;;4904011;29;20032;-76
2023/02/10 13:44:32;;;;;;;50.33;21.08;;;;;;;;;;4907044;29;20515;-79
2023/02/10 13:47:07;;;;;;;56.80;25.20;;;;;;;;;;4896453;29;20031;-78
2023/02/10 13:49:37;;;;;;;56.58;25.75;;;;;;;;;;4919844;29;20036;-78
2023/02/10 13:52:23;;;;;;;57.55;26.20;;;;;;;;;;4908507;29;20115;-78
2023/02/10 13:55:00;;;;;;;49.92;23.02;;;;;;;;;;4905354;29;20029;-78
2023/02/10 13:57:37;;;;;;;57.55;25.73;;;;;;;;;;4908508;29;20095;-79
2023/02/10 14:00:12;;;;;;;55.65;25.23;;;;;;;;;;4906517;29;20033;-78
2023/02/10 14:02:40;;;;;;;52.88;24.48;;;;;;;;;;4912687;29;20142;-79
2023/02/10 14:05:29;;;;;;;57.45;24.75;;;;;;;;;;4909709;29;20091;-78
2023/02/10 14:07:59;;;;;;;56.13;24.60;;;;;;;;;;4914976;29;20078;-77
2023/02/10 14:10:26;;;;;;;56.45;24.83;;;;;;;;;;4912080;29;20034;-78
2023/02/10 14:13:05;;;;;;;52.63;23.17;;;;;;;;;;4919856;29;20036;-78
2023/02/10 14:15:34;;;;;;;26.90;11.73;;;;;;;;;;4908780;29;20044;-77
2023/02/10 14:18:21;;;;;;;32.95;16.65;;;;;;;;;;4911036;29;20107;-77
2023/02/10 14:20:54;;;;;;;44.67;21.80;;;;;;;;;;4912600;29;20032;-78
2023/02/10 14:23:22;;;;;;;48.50;21.63;;;;;;;;;;4910132;29;20102;-78
2023/02/10 14:25:48;;;;;;;46.33;22.92;;;;;;;;;;4924503;29;20106;-79
2023/02/10 14:28:27;;;;;;;50.15;24.30;;;;;;;;;;4915836;29;20607;-78
2023/02/10 14:31:35;;;;;;;46.90;21.83;;;;;;;;;;4920064;29;20024;-77
2023/02/10 14:34:03;;;;;;;29.17;13.98;;;;;;;;;;4911410;29;20380;-78
2023/02/10 14:36:29;;;;;;;32.88;15.48;;;;;;;;;;4912563;29;20040;-77
2023/02/10 14:38:57;;;;;;;109.10;28.85;;;;;;;;;;4912744;29;20083;-79
2023/02/10 14:41:27;;;;;;;55.70;23.20;;;;;;;;;;4918078;29;20028;-79